sensor_id;sensor_type;location;lat;lon;timestamp;P1;durP1;ratioP1;P2;durP2;ratioP2
40649;SDS011;26342;42.826;23.992;2023-04-25T00:00:39;0.50;;;0.50;;
40649;SDS011;26342;42.826;23.992;2023-04-25T00:03:05;0.10;;;0.10;;
40649;SDS011;26342;42.826;23.992;2023-04-25T00:05:30;0.52;;;0.30;;
40649;SDS011;26342;42.826;23.992;2023-04-25T00:07:56;1.35;;;0.30;;
40649;SDS011;26342;42.826;23.992;2023-04-25T00:10:22;0.28;;;0.28;;
40649;SDS011;26342;42.826;23.992;2023-04-25T00:12:48;1.20;;;0.40;;
40649;SDS011;26342;42.826;23.992;2023-04-25T00:15:13;0.20;;;0.20;;
40649;SDS011;26342;42.826;23.992;2023-04-25T00:17:40;0.38;;;0.38;;
40649;SDS011;26342;42.826;23.992;2023-04-25T00:20:07;0.57;;;0.50;;
40649;SDS011;26342;42.826;23.992;2023-04-25T00:22:34;0.68;;;0.40;;
40649;SDS011;26342;42.826;23.992;2023-04-25T00:25:02;0.60;;;0.40;;
40649;SDS011;26342;42.826;23.992;2023-04-25T00:27:28;1.75;;;0.43;;
40649;SDS011;26342;42.826;23.992;2023-04-25T00:29:53;0.93;;;0.82;;
40649;SDS011;26342;42.826;23.992;2023-04-25T00:32:19;2.45;;;1.45;;
40649;SDS011;26342;42.826;23.992;2023-04-25T00:34:44;0.40;;;0.40;;
40649;SDS011;26342;42.826;23.992;2023-04-25T00:37:10;0.60;;;0.43;;
40649;SDS011;26342;42.826;23.992;2023-04-25T00:39:36;0.43;;;0.43;;
40649;SDS011;26342;42.826;23.992;2023-04-25T00:42:02;0.00;;;0.00;;
40649;SDS011;26342;42.826;23.992;2023-04-25T00:44:29;0.40;;;0.40;;
40649;SDS011;26342;42.826;23.992;2023-04-25T00:46:55;0.15;;;0.15;;
40649;SDS011;26342;42.826;23.992;2023-04-25T00:49:21;0.32;;;0.30;;
40649;SDS011;26342;42.826;23.992;2023-04-25T00:51:46;0.20;;;0.20;;
40649;SDS011;26342;42.826;23.992;2023-04-25T00:54:13;0.60;;;0.50;;
40649;SDS011;26342;42.826;23.992;2023-04-25T00:56:40;0.13;;;0.13;;
40649;SDS011;26342;42.826;23.992;2023-04-25T00:59:06;0.90;;;0.13;;
40649;SDS011;26342;42.826;23.992;2023-04-25T01:01:33;2.30;;;1.10;;
40649;SDS011;26342;42.826;23.992;2023-04-25T01:04:00;0.38;;;0.38;;
40649;SDS011;26342;42.826;23.992;2023-04-25T01:06:26;0.10;;;0.10;;
40649;SDS011;26342;42.826;23.992;2023-04-25T01:08:52;0.10;;;0.10;;
40649;SDS011;26342;42.826;23.992;2023-04-25T01:11:19;0.47;;;0.38;;
40649;SDS011;26342;42.826;23.992;2023-04-25T01:13:45;0.52;;;0.50;;
40649;SDS011;26342;42.826;23.992;2023-04-25T01:16:10;0.10;;;0.10;;
40649;SDS011;26342;42.826;23.992;2023-04-25T01:18:36;0.90;;;0.35;;
40649;SDS011;26342;42.826;23.992;2023-04-25T01:21:09;0.13;;;0.13;;
40649;SDS011;26342;42.826;23.992;2023-04-25T01:23:36;0.00;;;0.00;;
40649;SDS011;26342;42.826;23.992;2023-04-25T01:26:03;0.30;;;0.30;;
40649;SDS011;26342;42.826;23.992;2023-04-25T01:28:28;0.25;;;0.25;;
40649;SDS011;26342;42.826;23.992;2023-04-25T01:30:54;0.40;;;0.40;;
40649;SDS011;26342;42.826;23.992;2023-04-25T01:33:21;0.63;;;0.22;;
40649;SDS011;26342;42.826;23.992;2023-04-25T01:35:47;0.60;;;0.57;;
40649;SDS011;26342;42.826;23.992;2023-04-25T01:38:13;0.32;;;0.32;;
40649;SDS011;26342;42.826;23.992;2023-04-25T01:40:39;0.32;;;0.32;;
40649;SDS011;26342;42.826;23.992;2023-04-25T01:43:06;0.10;;;0.10;;
40649;SDS011;26342;42.826;23.992;2023-04-25T01:45:33;0.50;;;0.28;;
40649;SDS011;26342;42.826;23.992;2023-04-25T01:47:59;0.47;;;0.15;;
40649;SDS011;26342;42.826;23.992;2023-04-25T01:50:24;0.22;;;0.10;;
40649;SDS011;26342;42.826;23.992;2023-04-25T01:52:50;1.38;;;0.60;;
40649;SDS011;26342;42.826;23.992;2023-04-25T01:55:16;0.45;;;0.45;;
40649;SDS011;26342;42.826;23.992;2023-04-25T01:57:41;0.15;;;0.15;;
40649;SDS011;26342;42.826;23.992;2023-04-25T02:00:07;0.32;;;0.32;;
40649;SDS011;26342;42.826;23.992;2023-04-25T02:02:34;0.52;;;0.43;;
40649;SDS011;26342;42.826;23.992;2023-04-25T02:05:00;0.63;;;0.47;;
40649;SDS011;26342;42.826;23.992;2023-04-25T02:07:26;6.32;;;1.00;;
40649;SDS011;26342;42.826;23.992;2023-04-25T02:09:52;2.15;;;1.05;;
40649;SDS011;26342;42.826;23.992;2023-04-25T02:12:17;0.35;;;0.28;;
40649;SDS011;26342;42.826;23.992;2023-04-25T02:14:43;0.47;;;0.47;;
40649;SDS011;26342;42.826;23.992;2023-04-25T02:17:09;0.68;;;0.68;;
40649;SDS011;26342;42.826;23.992;2023-04-25T02:19:34;0.05;;;0.05;;
40649;SDS011;26342;42.826;23.992;2023-04-25T02:22:01;1.13;;;0.85;;
40649;SDS011;26342;42.826;23.992;2023-04-25T02:24:26;0.50;;;0.40;;
40649;SDS011;26342;42.826;23.992;2023-04-25T02:26:52;0.52;;;0.52;;
40649;SDS011;26342;42.826;23.992;2023-04-25T02:29:20;0.28;;;0.28;;
40649;SDS011;26342;42.826;23.992;2023-04-25T02:31:45;0.25;;;0.25;;
40649;SDS011;26342;42.826;23.992;2023-04-25T02:34:11;1.00;;;0.55;;
40649;SDS011;26342;42.826;23.992;2023-04-25T02:36:36;0.30;;;0.22;;
40649;SDS011;26342;42.826;23.992;2023-04-25T02:39:02;0.52;;;0.38;;
40649;SDS011;26342;42.826;23.992;2023-04-25T02:41:28;1.00;;;0.77;;
40649;SDS011;26342;42.826;23.992;2023-04-25T02:43:53;0.35;;;0.35;;
40649;SDS011;26342;42.826;23.992;2023-04-25T02:46:19;0.25;;;0.25;;
40649;SDS011;26342;42.826;23.992;2023-04-25T02:48:45;1.73;;;1.27;;
40649;SDS011;26342;42.826;23.992;2023-04-25T02:51:11;0.55;;;0.50;;
40649;SDS011;26342;42.826;23.992;2023-04-25T02:53:37;3.50;;;1.30;;
40649;SDS011;26342;42.826;23.992;2023-04-25T02:56:03;0.40;;;0.40;;
40649;SDS011;26342;42.826;23.992;2023-04-25T02:58:29;0.45;;;0.43;;
40649;SDS011;26342;42.826;23.992;2023-04-25T03:00:57;1.67;;;1.05;;
40649;SDS011;26342;42.826;23.992;2023-04-25T03:03:28;0.73;;;0.73;;
40649;SDS011;26342;42.826;23.992;2023-04-25T03:05:53;0.20;;;0.20;;
40649;SDS011;26342;42.826;23.992;2023-04-25T03:08:19;0.65;;;0.63;;
40649;SDS011;26342;42.826;23.992;2023-04-25T03:10:44;2.42;;;0.77;;
40649;SDS011;26342;42.826;23.992;2023-04-25T03:13:10;1.40;;;0.57;;
40649;SDS011;26342;42.826;23.992;2023-04-25T03:15:36;0.43;;;0.43;;
40649;SDS011;26342;42.826;23.992;2023-04-25T03:18:02;0.60;;;0.60;;
40649;SDS011;26342;42.826;23.992;2023-04-25T03:20:28;1.10;;;0.85;;
40649;SDS011;26342;42.826;23.992;2023-04-25T03:22:54;0.70;;;0.70;;
40649;SDS011;26342;42.826;23.992;2023-04-25T03:25:21;0.40;;;0.40;;
40649;SDS011;26342;42.826;23.992;2023-04-25T03:27:47;0.73;;;0.55;;
40649;SDS011;26342;42.826;23.992;2023-04-25T03:30:12;0.10;;;0.10;;
40649;SDS011;26342;42.826;23.992;2023-04-25T03:32:37;2.63;;;1.17;;
40649;SDS011;26342;42.826;23.992;2023-04-25T03:35:04;1.38;;;1.00;;
40649;SDS011;26342;42.826;23.992;2023-04-25T03:37:30;1.75;;;1.55;;
40649;SDS011;26342;42.826;23.992;2023-04-25T03:39:55;0.88;;;0.85;;
40649;SDS011;26342;42.826;23.992;2023-04-25T03:42:21;2.47;;;1.27;;
40649;SDS011;26342;42.826;23.992;2023-04-25T03:44:48;0.98;;;0.95;;
40649;SDS011;26342;42.826;23.992;2023-04-25T03:47:14;1.02;;;0.77;;
40649;SDS011;26342;42.826;23.992;2023-04-25T03:49:40;7.72;;;4.18;;
40649;SDS011;26342;42.826;23.992;2023-04-25T03:52:06;3.35;;;2.10;;
40649;SDS011;26342;42.826;23.992;2023-04-25T03:54:31;1.80;;;1.67;;
40649;SDS011;26342;42.826;23.992;2023-04-25T03:56:57;2.85;;;2.10;;
40649;SDS011;26342;42.826;23.992;2023-04-25T03:59:22;2.65;;;2.45;;
40649;SDS011;26342;42.826;23.992;2023-04-25T04:01:48;5.88;;;2.40;;
40649;SDS011;26342;42.826;23.992;2023-04-25T04:04:13;1.98;;;1.75;;
40649;SDS011;26342;42.826;23.992;2023-04-25T04:06:39;5.38;;;2.85;;
40649;SDS011;26342;42.826;23.992;2023-04-25T04:09:05;2.50;;;1.52;;
40649;SDS011;26342;42.826;23.992;2023-04-25T04:11:34;1.67;;;1.42;;
40649;SDS011;26342;42.826;23.992;2023-04-25T04:14:01;1.60;;;1.20;;
40649;SDS011;26342;42.826;23.992;2023-04-25T04:16:27;3.33;;;2.00;;
40649;SDS011;26342;42.826;23.992;2023-04-25T04:18:53;4.10;;;1.60;;
40649;SDS011;26342;42.826;23.992;2023-04-25T04:21:18;1.45;;;1.25;;
40649;SDS011;26342;42.826;23.992;2023-04-25T04:23:44;0.68;;;0.52;;
40649;SDS011;26342;42.826;23.992;2023-04-25T04:26:10;3.10;;;2.38;;
40649;SDS011;26342;42.826;23.992;2023-04-25T04:28:36;3.15;;;2.15;;
40649;SDS011;26342;42.826;23.992;2023-04-25T04:31:02;7.03;;;2.65;;
40649;SDS011;26342;42.826;23.992;2023-04-25T04:33:28;5.13;;;3.75;;
40649;SDS011;26342;42.826;23.992;2023-04-25T04:35:55;4.90;;;3.28;;
40649;SDS011;26342;42.826;23.992;2023-04-25T04:38:21;3.88;;;3.15;;
40649;SDS011;26342;42.826;23.992;2023-04-25T04:40:46;5.15;;;4.35;;
40649;SDS011;26342;42.826;23.992;2023-04-25T04:43:12;2.95;;;2.50;;
40649;SDS011;26342;42.826;23.992;2023-04-25T04:45:38;5.22;;;2.75;;
40649;SDS011;26342;42.826;23.992;2023-04-25T04:48:05;4.28;;;2.78;;
40649;SDS011;26342;42.826;23.992;2023-04-25T04:50:31;6.60;;;4.53;;
40649;SDS011;26342;42.826;23.992;2023-04-25T04:52:57;6.45;;;3.92;;
40649;SDS011;26342;42.826;23.992;2023-04-25T04:55:23;5.13;;;2.60;;
40649;SDS011;26342;42.826;23.992;2023-04-25T04:57:50;3.00;;;2.08;;
40649;SDS011;26342;42.826;23.992;2023-04-25T05:00:15;3.42;;;2.40;;
40649;SDS011;26342;42.826;23.992;2023-04-25T05:02:41;3.17;;;2.15;;
40649;SDS011;26342;42.826;23.992;2023-04-25T05:05:07;3.63;;;2.95;;
40649;SDS011;26342;42.826;23.992;2023-04-25T05:07:33;7.20;;;1.73;;
40649;SDS011;26342;42.826;23.992;2023-04-25T05:09:59;4.57;;;3.70;;
40649;SDS011;26342;42.826;23.992;2023-04-25T05:12:24;3.33;;;2.55;;
40649;SDS011;26342;42.826;23.992;2023-04-25T05:14:53;4.82;;;2.70;;
40649;SDS011;26342;42.826;23.992;2023-04-25T05:17:18;2.65;;;2.45;;
40649;SDS011;26342;42.826;23.992;2023-04-25T05:19:45;9.05;;;3.22;;
40649;SDS011;26342;42.826;23.992;2023-04-25T05:22:11;3.38;;;2.92;;
40649;SDS011;26342;42.826;23.992;2023-04-25T05:24:36;2.70;;;2.28;;
40649;SDS011;26342;42.826;23.992;2023-04-25T05:27:02;1.25;;;1.15;;
40649;SDS011;26342;42.826;23.992;2023-04-25T05:29:27;1.85;;;1.50;;
40649;SDS011;26342;42.826;23.992;2023-04-25T05:31:53;1.50;;;0.95;;
40649;SDS011;26342;42.826;23.992;2023-04-25T05:34:18;2.30;;;1.50;;
40649;SDS011;26342;42.826;23.992;2023-04-25T05:36:44;4.63;;;2.30;;
40649;SDS011;26342;42.826;23.992;2023-04-25T05:39:13;3.13;;;2.47;;
40649;SDS011;26342;42.826;23.992;2023-04-25T05:41:42;6.45;;;1.38;;
40649;SDS011;26342;42.826;23.992;2023-04-25T05:44:08;2.72;;;2.15;;
40649;SDS011;26342;42.826;23.992;2023-04-25T05:46:34;7.78;;;3.50;;
40649;SDS011;26342;42.826;23.992;2023-04-25T05:48:59;7.18;;;4.38;;
40649;SDS011;26342;42.826;23.992;2023-04-25T05:51:24;2.65;;;1.88;;
40649;SDS011;26342;42.826;23.992;2023-04-25T05:53:50;3.45;;;2.45;;
40649;SDS011;26342;42.826;23.992;2023-04-25T05:56:16;8.93;;;2.75;;
40649;SDS011;26342;42.826;23.992;2023-04-25T05:58:42;1.92;;;1.77;;
40649;SDS011;26342;42.826;23.992;2023-04-25T06:01:07;4.20;;;2.95;;
40649;SDS011;26342;42.826;23.992;2023-04-25T06:03:33;2.35;;;2.15;;
40649;SDS011;26342;42.826;23.992;2023-04-25T06:05:59;1.10;;;0.73;;
40649;SDS011;26342;42.826;23.992;2023-04-25T06:08:24;0.73;;;0.55;;
40649;SDS011;26342;42.826;23.992;2023-04-25T06:10:50;3.47;;;1.90;;
40649;SDS011;26342;42.826;23.992;2023-04-25T06:13:15;2.85;;;0.82;;
40649;SDS011;26342;42.826;23.992;2023-04-25T06:15:41;2.72;;;1.60;;
40649;SDS011;26342;42.826;23.992;2023-04-25T06:18:07;2.30;;;0.90;;
40649;SDS011;26342;42.826;23.992;2023-04-25T06:20:33;1.75;;;0.65;;
40649;SDS011;26342;42.826;23.992;2023-04-25T06:22:58;3.00;;;1.17;;
40649;SDS011;26342;42.826;23.992;2023-04-25T06:25:23;2.95;;;1.40;;
40649;SDS011;26342;42.826;23.992;2023-04-25T06:27:49;1.83;;;1.38;;
40649;SDS011;26342;42.826;23.992;2023-04-25T06:30:14;4.65;;;2.13;;
40649;SDS011;26342;42.826;23.992;2023-04-25T06:32:41;4.00;;;2.47;;
40649;SDS011;26342;42.826;23.992;2023-04-25T06:35:06;0.40;;;0.40;;
40649;SDS011;26342;42.826;23.992;2023-04-25T06:37:32;0.85;;;0.68;;
40649;SDS011;26342;42.826;23.992;2023-04-25T06:39:57;0.10;;;0.10;;
40649;SDS011;26342;42.826;23.992;2023-04-25T06:42:23;0.63;;;0.40;;
40649;SDS011;26342;42.826;23.992;2023-04-25T06:44:48;0.63;;;0.50;;
40649;SDS011;26342;42.826;23.992;2023-04-25T06:47:14;1.17;;;0.40;;
40649;SDS011;26342;42.826;23.992;2023-04-25T06:49:40;0.20;;;0.20;;
40649;SDS011;26342;42.826;23.992;2023-04-25T06:52:05;0.30;;;0.30;;
40649;SDS011;26342;42.826;23.992;2023-04-25T06:54:30;0.20;;;0.20;;
40649;SDS011;26342;42.826;23.992;2023-04-25T06:56:56;1.27;;;0.88;;
40649;SDS011;26342;42.826;23.992;2023-04-25T06:59:22;4.65;;;0.98;;
40649;SDS011;26342;42.826;23.992;2023-04-25T07:01:48;1.65;;;0.63;;
40649;SDS011;26342;42.826;23.992;2023-04-25T07:04:13;0.88;;;0.70;;
40649;SDS011;26342;42.826;23.992;2023-04-25T07:06:39;2.25;;;0.82;;
40649;SDS011;26342;42.826;23.992;2023-04-25T07:09:11;1.30;;;0.88;;
40649;SDS011;26342;42.826;23.992;2023-04-25T07:11:37;0.52;;;0.47;;
40649;SDS011;26342;42.826;23.992;2023-04-25T07:14:02;0.30;;;0.30;;
40649;SDS011;26342;42.826;23.992;2023-04-25T07:16:28;0.68;;;0.35;;
40649;SDS011;26342;42.826;23.992;2023-04-25T07:18:54;1.58;;;1.40;;
40649;SDS011;26342;42.826;23.992;2023-04-25T07:21:19;1.10;;;0.77;;
40649;SDS011;26342;42.826;23.992;2023-04-25T07:23:45;0.70;;;0.40;;
40649;SDS011;26342;42.826;23.992;2023-04-25T07:26:10;0.88;;;0.88;;
40649;SDS011;26342;42.826;23.992;2023-04-25T07:28:35;0.47;;;0.47;;
40649;SDS011;26342;42.826;23.992;2023-04-25T07:31:01;1.42;;;0.70;;
40649;SDS011;26342;42.826;23.992;2023-04-25T07:33:27;0.93;;;0.63;;
40649;SDS011;26342;42.826;23.992;2023-04-25T07:35:52;1.92;;;1.10;;
40649;SDS011;26342;42.826;23.992;2023-04-25T07:38:18;1.15;;;1.10;;
40649;SDS011;26342;42.826;23.992;2023-04-25T07:40:44;0.43;;;0.40;;
40649;SDS011;26342;42.826;23.992;2023-04-25T07:43:10;0.40;;;0.40;;
40649;SDS011;26342;42.826;23.992;2023-04-25T07:45:37;1.65;;;0.95;;
40649;SDS011;26342;42.826;23.992;2023-04-25T07:48:02;0.52;;;0.52;;
40649;SDS011;26342;42.826;23.992;2023-04-25T07:50:28;0.32;;;0.32;;
40649;SDS011;26342;42.826;23.992;2023-04-25T07:52:53;0.45;;;0.43;;
40649;SDS011;26342;42.826;23.992;2023-04-25T07:55:19;1.25;;;0.98;;
40649;SDS011;26342;42.826;23.992;2023-04-25T07:57:44;4.72;;;0.77;;
40649;SDS011;26342;42.826;23.992;2023-04-25T08:00:10;0.57;;;0.57;;
40649;SDS011;26342;42.826;23.992;2023-04-25T08:02:37;0.70;;;0.60;;
40649;SDS011;26342;42.826;23.992;2023-04-25T08:05:03;0.40;;;0.40;;
40649;SDS011;26342;42.826;23.992;2023-04-25T08:07:28;0.52;;;0.52;;
40649;SDS011;26342;42.826;23.992;2023-04-25T08:09:54;2.05;;;0.98;;
40649;SDS011;26342;42.826;23.992;2023-04-25T08:12:19;0.95;;;0.90;;
40649;SDS011;26342;42.826;23.992;2023-04-25T08:14:45;0.47;;;0.20;;
40649;SDS011;26342;42.826;23.992;2023-04-25T08:17:11;0.47;;;0.47;;
40649;SDS011;26342;42.826;23.992;2023-04-25T08:19:36;1.33;;;0.98;;
40649;SDS011;26342;42.826;23.992;2023-04-25T08:22:03;0.15;;;0.15;;
40649;SDS011;26342;42.826;23.992;2023-04-25T08:24:28;0.95;;;0.63;;
40649;SDS011;26342;42.826;23.992;2023-04-25T08:26:53;0.20;;;0.15;;
40649;SDS011;26342;42.826;23.992;2023-04-25T08:29:19;0.95;;;0.50;;
40649;SDS011;26342;42.826;23.992;2023-04-25T08:31:44;0.52;;;0.52;;
40649;SDS011;26342;42.826;23.992;2023-04-25T08:34:10;0.60;;;0.52;;
40649;SDS011;26342;42.826;23.992;2023-04-25T08:36:36;0.85;;;0.75;;
40649;SDS011;26342;42.826;23.992;2023-04-25T08:39:02;0.70;;;0.70;;
40649;SDS011;26342;42.826;23.992;2023-04-25T08:41:27;0.70;;;0.70;;
40649;SDS011;26342;42.826;23.992;2023-04-25T08:43:53;2.05;;;1.38;;
40649;SDS011;26342;42.826;23.992;2023-04-25T08:46:21;0.85;;;0.25;;
40649;SDS011;26342;42.826;23.992;2023-04-25T08:48:48;0.22;;;0.22;;
40649;SDS011;26342;42.826;23.992;2023-04-25T08:51:17;0.30;;;0.30;;
40649;SDS011;26342;42.826;23.992;2023-04-25T08:53:56;0.70;;;0.50;;
40649;SDS011;26342;42.826;23.992;2023-04-25T08:56:27;0.25;;;0.22;;
40649;SDS011;26342;42.826;23.992;2023-04-25T08:58:53;0.43;;;0.30;;
40649;SDS011;26342;42.826;23.992;2023-04-25T09:01:20;1.00;;;0.95;;
40649;SDS011;26342;42.826;23.992;2023-04-25T09:03:46;2.10;;;1.15;;
40649;SDS011;26342;42.826;23.992;2023-04-25T09:06:12;1.17;;;0.77;;
40649;SDS011;26342;42.826;23.992;2023-04-25T09:08:38;0.77;;;0.77;;
40649;SDS011;26342;42.826;23.992;2023-04-25T09:11:06;1.30;;;1.10;;
40649;SDS011;26342;42.826;23.992;2023-04-25T09:13:32;2.10;;;1.55;;
40649;SDS011;26342;42.826;23.992;2023-04-25T09:15:57;0.70;;;0.60;;
40649;SDS011;26342;42.826;23.992;2023-04-25T09:18:27;1.58;;;0.77;;
40649;SDS011;26342;42.826;23.992;2023-04-25T09:20:54;0.20;;;0.20;;
40649;SDS011;26342;42.826;23.992;2023-04-25T09:23:20;1.23;;;0.90;;
40649;SDS011;26342;42.826;23.992;2023-04-25T09:25:51;0.40;;;0.40;;
40649;SDS011;26342;42.826;23.992;2023-04-25T09:28:26;0.55;;;0.47;;
40649;SDS011;26342;42.826;23.992;2023-04-25T09:30:56;0.60;;;0.60;;
40649;SDS011;26342;42.826;23.992;2023-04-25T09:33:26;1.08;;;0.80;;
40649;SDS011;26342;42.826;23.992;2023-04-25T09:36:03;0.57;;;0.57;;
40649;SDS011;26342;42.826;23.992;2023-04-25T09:38:43;1.67;;;0.70;;
40649;SDS011;26342;42.826;23.992;2023-04-25T09:41:10;0.00;;;0.00;;
40649;SDS011;26342;42.826;23.992;2023-04-25T09:43:36;0.50;;;0.50;;
40649;SDS011;26342;42.826;23.992;2023-04-25T09:46:02;0.95;;;0.63;;
40649;SDS011;26342;42.826;23.992;2023-04-25T09:48:33;0.35;;;0.35;;
40649;SDS011;26342;42.826;23.992;2023-04-25T09:53:43;0.40;;;0.40;;
40649;SDS011;26342;42.826;23.992;2023-04-25T09:56:11;0.40;;;0.30;;
40649;SDS011;26342;42.826;23.992;2023-04-25T09:58:39;1.20;;;0.65;;
40649;SDS011;26342;42.826;23.992;2023-04-25T10:01:09;1.83;;;0.88;;
40649;SDS011;26342;42.826;23.992;2023-04-25T10:03:39;0.55;;;0.55;;
40649;SDS011;26342;42.826;23.992;2023-04-25T10:06:09;1.33;;;0.60;;
40649;SDS011;26342;42.826;23.992;2023-04-25T10:08:39;0.47;;;0.47;;
40649;SDS011;26342;42.826;23.992;2023-04-25T10:11:07;0.50;;;0.50;;
40649;SDS011;26342;42.826;23.992;2023-04-25T10:13:34;0.40;;;0.40;;
40649;SDS011;26342;42.826;23.992;2023-04-25T10:16:02;0.52;;;0.20;;
40649;SDS011;26342;42.826;23.992;2023-04-25T10:18:29;0.20;;;0.20;;
40649;SDS011;26342;42.826;23.992;2023-04-25T10:20:56;0.30;;;0.30;;
40649;SDS011;26342;42.826;23.992;2023-04-25T10:23:23;1.77;;;0.50;;
40649;SDS011;26342;42.826;23.992;2023-04-25T10:25:52;0.65;;;0.32;;
40649;SDS011;26342;42.826;23.992;2023-04-25T10:28:19;0.10;;;0.10;;
40649;SDS011;26342;42.826;23.992;2023-04-25T10:31:01;0.90;;;0.47;;
40649;SDS011;26342;42.826;23.992;2023-04-25T10:36:08;1.67;;;0.73;;
40649;SDS011;26342;42.826;23.992;2023-04-25T10:38:38;1.50;;;0.90;;
40649;SDS011;26342;42.826;23.992;2023-04-25T10:41:08;3.13;;;1.75;;
40649;SDS011;26342;42.826;23.992;2023-04-25T10:43:41;0.57;;;0.30;;
40649;SDS011;26342;42.826;23.992;2023-04-25T10:46:42;1.85;;;1.65;;
40649;SDS011;26342;42.826;23.992;2023-04-25T10:49:01;0.10;;;0.10;;
40649;SDS011;26342;42.826;23.992;2023-04-25T10:51:28;10.23;;;4.82;;
40649;SDS011;26342;42.826;23.992;2023-04-25T10:56:22;0.00;;;0.00;;
40649;SDS011;26342;42.826;23.992;2023-04-25T10:58:50;0.30;;;0.30;;
40649;SDS011;26342;42.826;23.992;2023-04-25T11:01:19;0.38;;;0.10;;
40649;SDS011;26342;42.826;23.992;2023-04-25T11:03:45;0.43;;;0.35;;
40649;SDS011;26342;42.826;23.992;2023-04-25T11:09:35;0.57;;;0.40;;
40649;SDS011;26342;42.826;23.992;2023-04-25T11:12:03;0.10;;;0.10;;
40649;SDS011;26342;42.826;23.992;2023-04-25T11:14:30;0.38;;;0.38;;
40649;SDS011;26342;42.826;23.992;2023-04-25T11:16:57;0.20;;;0.20;;
40649;SDS011;26342;42.826;23.992;2023-04-25T11:19:24;0.40;;;0.20;;
40649;SDS011;26342;42.826;23.992;2023-04-25T11:21:55;1.85;;;1.05;;
40649;SDS011;26342;42.826;23.992;2023-04-25T11:24:31;0.38;;;0.38;;
40649;SDS011;26342;42.826;23.992;2023-04-25T11:26:58;1.65;;;0.52;;
40649;SDS011;26342;42.826;23.992;2023-04-25T11:29:28;3.85;;;1.05;;
40649;SDS011;26342;42.826;23.992;2023-04-25T11:31:55;2.40;;;1.20;;
40649;SDS011;26342;42.826;23.992;2023-04-25T11:34:22;0.20;;;0.20;;
40649;SDS011;26342;42.826;23.992;2023-04-25T11:36:49;1.08;;;0.90;;
40649;SDS011;26342;42.826;23.992;2023-04-25T11:39:15;0.45;;;0.43;;
40649;SDS011;26342;42.826;23.992;2023-04-25T11:41:41;0.40;;;0.25;;
40649;SDS011;26342;42.826;23.992;2023-04-25T11:44:07;0.43;;;0.43;;
40649;SDS011;26342;42.826;23.992;2023-04-25T11:46:35;0.20;;;0.20;;
40649;SDS011;26342;42.826;23.992;2023-04-25T11:49:01;0.20;;;0.20;;
40649;SDS011;26342;42.826;23.992;2023-04-25T11:51:28;0.20;;;0.20;;
40649;SDS011;26342;42.826;23.992;2023-04-25T11:53:55;0.15;;;0.15;;
40649;SDS011;26342;42.826;23.992;2023-04-25T11:56:20;0.70;;;0.32;;
40649;SDS011;26342;42.826;23.992;2023-04-25T11:59:02;0.55;;;0.52;;
40649;SDS011;26342;42.826;23.992;2023-04-25T12:01:29;0.38;;;0.30;;
40649;SDS011;26342;42.826;23.992;2023-04-25T12:03:55;0.57;;;0.57;;
40649;SDS011;26342;42.826;23.992;2023-04-25T12:06:25;0.28;;;0.28;;
40649;SDS011;26342;42.826;23.992;2023-04-25T12:09:02;0.25;;;0.20;;
40649;SDS011;26342;42.826;23.992;2023-04-25T12:11:39;0.10;;;0.10;;
40649;SDS011;26342;42.826;23.992;2023-04-25T12:14:06;0.47;;;0.47;;
40649;SDS011;26342;42.826;23.992;2023-04-25T12:16:42;0.10;;;0.10;;
40649;SDS011;26342;42.826;23.992;2023-04-25T12:19:07;0.57;;;0.57;;
40649;SDS011;26342;42.826;23.992;2023-04-25T12:21:33;0.20;;;0.20;;
40649;SDS011;26342;42.826;23.992;2023-04-25T12:27:04;0.00;;;0.00;;
40649;SDS011;26342;42.826;23.992;2023-04-25T12:29:33;0.25;;;0.20;;
40649;SDS011;26342;42.826;23.992;2023-04-25T12:31:59;0.00;;;0.00;;
40649;SDS011;26342;42.826;23.992;2023-04-25T12:34:27;0.32;;;0.30;;
40649;SDS011;26342;42.826;23.992;2023-04-25T12:36:53;0.20;;;0.20;;
40649;SDS011;26342;42.826;23.992;2023-04-25T12:39:19;0.10;;;0.10;;
40649;SDS011;26342;42.826;23.992;2023-04-25T12:41:50;0.85;;;0.20;;
40649;SDS011;26342;42.826;23.992;2023-04-25T12:44:21;0.30;;;0.30;;
40649;SDS011;26342;42.826;23.992;2023-04-25T12:46:48;0.30;;;0.30;;
40649;SDS011;26342;42.826;23.992;2023-04-25T12:49:13;0.10;;;0.10;;
40649;SDS011;26342;42.826;23.992;2023-04-25T12:51:39;0.00;;;0.00;;
40649;SDS011;26342;42.826;23.992;2023-04-25T12:54:05;0.20;;;0.17;;
40649;SDS011;26342;42.826;23.992;2023-04-25T12:56:33;0.00;;;0.00;;
40649;SDS011;26342;42.826;23.992;2023-04-25T12:59:01;0.10;;;0.10;;
40649;SDS011;26342;42.826;23.992;2023-04-25T13:01:28;0.30;;;0.30;;
40649;SDS011;26342;42.826;23.992;2023-04-25T13:03:54;0.10;;;0.10;;
40649;SDS011;26342;42.826;23.992;2023-04-25T13:06:22;0.80;;;0.13;;
40649;SDS011;26342;42.826;23.992;2023-04-25T13:08:47;0.10;;;0.10;;
40649;SDS011;26342;42.826;23.992;2023-04-25T13:11:13;0.10;;;0.10;;
40649;SDS011;26342;42.826;23.992;2023-04-25T13:13:42;0.98;;;0.50;;
40649;SDS011;26342;42.826;23.992;2023-04-25T13:16:08;0.00;;;0.00;;
40649;SDS011;26342;42.826;23.992;2023-04-25T13:18:34;0.03;;;0.03;;
40649;SDS011;26342;42.826;23.992;2023-04-25T13:21:00;0.20;;;0.20;;
40649;SDS011;26342;42.826;23.992;2023-04-25T13:23:27;0.00;;;0.00;;
40649;SDS011;26342;42.826;23.992;2023-04-25T13:25:54;0.10;;;0.10;;
40649;SDS011;26342;42.826;23.992;2023-04-25T13:28:22;0.63;;;0.20;;
40649;SDS011;26342;42.826;23.992;2023-04-25T13:30:48;0.10;;;0.10;;
40649;SDS011;26342;42.826;23.992;2023-04-25T13:33:14;0.65;;;0.35;;
40649;SDS011;26342;42.826;23.992;2023-04-25T13:35:40;1.17;;;0.77;;
40649;SDS011;26342;42.826;23.992;2023-04-25T13:38:06;13.63;;;4.10;;
40649;SDS011;26342;42.826;23.992;2023-04-25T13:40:32;3.03;;;2.22;;
40649;SDS011;26342;42.826;23.992;2023-04-25T13:42:57;0.98;;;0.55;;
40649;SDS011;26342;42.826;23.992;2023-04-25T13:45:24;0.25;;;0.20;;
40649;SDS011;26342;42.826;23.992;2023-04-25T13:47:50;1.55;;;1.30;;
40649;SDS011;26342;42.826;23.992;2023-04-25T13:50:16;0.30;;;0.30;;
40649;SDS011;26342;42.826;23.992;2023-04-25T13:52:42;0.63;;;0.63;;
40649;SDS011;26342;42.826;23.992;2023-04-25T13:55:08;0.95;;;0.88;;
40649;SDS011;26342;42.826;23.992;2023-04-25T13:57:34;5.70;;;0.70;;
40649;SDS011;26342;42.826;23.992;2023-04-25T14:00:01;0.55;;;0.55;;
40649;SDS011;26342;42.826;23.992;2023-04-25T14:05:03;0.10;;;0.10;;
40649;SDS011;26342;42.826;23.992;2023-04-25T14:07:29;1.55;;;0.10;;
40649;SDS011;26342;42.826;23.992;2023-04-25T14:09:55;0.55;;;0.55;;
40649;SDS011;26342;42.826;23.992;2023-04-25T14:12:24;0.35;;;0.35;;
40649;SDS011;26342;42.826;23.992;2023-04-25T14:14:50;0.38;;;0.15;;
40649;SDS011;26342;42.826;23.992;2023-04-25T14:17:15;0.65;;;0.30;;
40649;SDS011;26342;42.826;23.992;2023-04-25T14:19:41;2.22;;;1.15;;
40649;SDS011;26342;42.826;23.992;2023-04-25T14:22:10;0.55;;;0.32;;
40649;SDS011;26342;42.826;23.992;2023-04-25T14:24:35;0.10;;;0.08;;
40649;SDS011;26342;42.826;23.992;2023-04-25T14:27:01;1.50;;;0.90;;
40649;SDS011;26342;42.826;23.992;2023-04-25T14:29:26;0.00;;;0.00;;
40649;SDS011;26342;42.826;23.992;2023-04-25T14:31:52;0.55;;;0.55;;
40649;SDS011;26342;42.826;23.992;2023-04-25T14:34:20;3.15;;;0.82;;
40649;SDS011;26342;42.826;23.992;2023-04-25T14:36:46;0.30;;;0.30;;
40649;SDS011;26342;42.826;23.992;2023-04-25T14:39:12;8.05;;;1.00;;
40649;SDS011;26342;42.826;23.992;2023-04-25T14:41:38;0.00;;;0.00;;
40649;SDS011;26342;42.826;23.992;2023-04-25T14:44:04;1.52;;;1.08;;
40649;SDS011;26342;42.826;23.992;2023-04-25T14:46:30;0.95;;;0.65;;